Impacts TAF Board
For situational awareness. Not to be used for flight planning purposes.
IDs:

KPHX - Phoenix/Sky Harbor, AZ, US

Issued at 2334 UTC 16 Jul 2019
Updated at 0027 UTC 17 Jul 2019
Potential Impact None Slight Moderate High
Time<<17/13Z 17/14Z 17/15Z 17/16Z 17/17Z 17/18Z 17/19Z 17/20Z 17/21Z 17/22Z 17/23Z 18/00Z 18/01Z>>
Type PRVL PRVL PRVL PRVL PRVL PRVL PRVL PRVL PRVL PRVL PRVL PRVL PRVL
VIS >6 >6 >6 >6 >6 >6 >6 >6 >6 >6 >6 >6 >6
CIG -- -- -- -- -- -- -- -- -- -- -- -- --
Cover FEW FEW FEW FEW FEW FEW FEW SCT SCT SCT SCT SCT SCT
FltCat VFR VFR VFR VFR VFR VFR VFR VFR VFR VFR VFR VFR VFR
WX -- -- -- -- -- -- -- -- -- -- -- -- --
WDir 120 180 180 180 180 180 180 250 250 250 250 250 250
WSpd 6 7 7 7 7 7 7 10 10 10 10 10 10
WGst -- -- -- -- -- -- -- 18 18 18 18 18 18
Raw TAF
KPHX 162334Z 1700/1806 27013G21KT P6SM FEW120 FEW200
  FM170400 25008KT P6SM FEW120
  FM171000 12006KT P6SM FEW120
  FM171400 18007KT P6SM FEW120
  FM172000 25010G18KT P6SM FEW120 SCT250
  FM180400 25009KT P6SM FEW120


METAR Board
Radar Display
Forecast Discussion
For situational awareness. Not to be used for flight planning purposes.